Strona główna
METAR-TAF:

METAR-TAF

Lotnisko :

Port lotniczy Sibulan

Dumaguete, Filipiny

Szerokość geograficzna: 09-20-01N, Długość geograficzna: 123-18-02E, wysokość: 5 m

Aktualna obserwacja pogody

Raport powstał 37 minut temu, godzina 00:00 UTC
Wiatr 6 kt od północny wschód
Temperatura 27°C
Wilgotność 79%
Ciśnienie 1012 hPa
Widzialność 10 km lub więcej
Rozproszone chmury na wysokości 1500 ft

METAR: RPVD 230000Z 04006KT 9999 SCT015 27/23 Q1012 RMK A2988 CB N/S

czas: 08:37 (00:37 UTC)

Prognoza

Raport powstał 1 godzina i 37 minut temu, godzina 23:00 UTC
Prognoza ważna od 23 godzina 00 UTC do 23 godzina 24 UTC
Wiatr 7 kt od północny wschód
Widzialność 10 km lub więcej
Mało chmury na wysokości 1500 ft
Przejściowo
od 23 godzina 03 UTC do 23 godzina 09 UTC
Wiatr 10 kt od północno-północny wschód
Rozproszone chmury na wysokości 1500 ft

TAF: RPVD 222300Z 2300/2324 04007KT 9999 FEW015 TEMPO 2303/2309 02010KT SCT015

Obserwacja i prognoza pogody dla ponad 4000 lotnisk (raport METAR i TAF).

Dostępne stacje oznaczono żółtymi i czerwonymi punktami na mapie.

Najedź kursorem aby zobaczyć nazwę stacji.

Kliknij aby zobaczyć obserwacje i prognozy pogody.

Aby zmienić mapę: kliknij na zielony przycisk z czarnym krzyżykiem, aby powiększyć; na zielony przycisk z myślnikiem, aby pomniejszyć; na zielone strzałki, aby przejść do map sąsiednich.


METAR-TAF: